createdAt,value
2018-12-11T00:01:48.052Z,25.50
2018-12-11T00:04:16.660Z,25.60
2018-12-11T00:06:45.412Z,25.60
2018-12-11T00:09:14.200Z,25.50
2018-12-11T00:11:42.753Z,25.60
2018-12-11T00:14:11.310Z,25.60
2018-12-11T00:16:42.230Z,25.60
2018-12-11T00:19:10.873Z,25.50
2018-12-11T00:21:39.261Z,25.50
2018-12-11T00:24:08.113Z,25.50
2018-12-11T00:26:36.693Z,25.50
2018-12-11T00:29:05.121Z,25.40
2018-12-11T00:31:34.205Z,25.40
2018-12-11T00:34:02.838Z,25.50
2018-12-11T00:36:31.514Z,25.50
2018-12-11T00:39:00.409Z,25.50
2018-12-11T00:41:28.873Z,25.50
2018-12-11T00:43:57.482Z,25.50
2018-12-11T00:46:26.605Z,25.50
2018-12-11T00:48:55.081Z,25.50
2018-12-11T00:51:23.832Z,25.50
2018-12-11T00:53:52.596Z,25.40
2018-12-11T00:56:21.116Z,25.40
2018-12-11T00:58:49.769Z,25.40
2018-12-11T01:01:18.353Z,25.40
2018-12-11T01:03:46.972Z,25.40
2018-12-11T01:06:15.751Z,25.40
2018-12-11T01:08:44.348Z,25.50
2018-12-11T01:11:12.933Z,25.40
2018-12-11T01:13:41.624Z,25.40
2018-12-11T01:16:10.649Z,25.40
2018-12-11T01:18:39.740Z,25.40
2018-12-11T01:21:08.460Z,25.40
2018-12-11T01:23:37.483Z,25.40
2018-12-11T01:26:05.913Z,25.40
2018-12-11T01:28:34.565Z,25.40
2018-12-11T01:31:03.417Z,25.30
2018-12-11T01:33:31.936Z,25.30
2018-12-11T01:36:00.625Z,25.30
2018-12-11T01:38:29.620Z,25.30
2018-12-11T01:40:58.085Z,25.30
2018-12-11T01:43:27.147Z,25.30
2018-12-11T01:45:56.001Z,25.30
2018-12-11T01:48:24.677Z,25.30
2018-12-11T01:50:53.189Z,25.30
2018-12-11T01:53:21.953Z,25.30
2018-12-11T01:55:50.705Z,25.30
2018-12-11T01:58:19.069Z,25.30
2018-12-11T02:00:47.917Z,25.30
2018-12-11T02:03:16.597Z,25.30
2018-12-11T02:05:45.052Z,25.30
2018-12-11T02:08:13.976Z,25.30
2018-12-11T02:10:42.580Z,25.30
2018-12-11T02:13:11.317Z,25.30
2018-12-11T02:15:40.138Z,25.20
2018-12-11T02:18:08.722Z,25.30
2018-12-11T02:20:38.525Z,25.20
2018-12-11T02:23:07.477Z,25.20
2018-12-11T02:25:36.118Z,25.20
2018-12-11T02:28:04.870Z,25.20
2018-12-11T02:30:33.558Z,25.20
2018-12-11T02:33:03.395Z,25.20
2018-12-11T02:35:32.158Z,25.30
2018-12-11T02:38:00.941Z,25.30
2018-12-11T02:40:29.579Z,25.30
2018-12-11T02:42:58.181Z,25.30
2018-12-11T02:45:26.794Z,25.30
2018-12-11T02:47:55.334Z,25.30
2018-12-11T02:50:24.013Z,25.30
2018-12-11T02:52:53.139Z,25.30
2018-12-11T02:55:21.960Z,25.30
2018-12-11T02:57:50.418Z,25.20
2018-12-11T03:00:19.417Z,25.30
2018-12-11T03:02:48.067Z,25.30
2018-12-11T03:05:16.816Z,25.30
2018-12-11T03:07:45.737Z,25.30
2018-12-11T03:10:14.538Z,25.40
2018-12-11T03:12:43.315Z,25.50
2018-12-11T03:15:12.082Z,25.60
2018-12-11T03:17:40.601Z,25.50
2018-12-11T03:20:09.285Z,25.50
2018-12-11T03:22:39.133Z,25.60
2018-12-11T03:25:07.719Z,25.70
2018-12-11T03:27:36.434Z,25.70
2018-12-11T03:30:05.751Z,26.00
2018-12-11T03:32:34.566Z,26.40
2018-12-11T03:35:03.242Z,26.90
2018-12-11T03:37:32.000Z,27.40
2018-12-11T03:40:00.626Z,27.70
2018-12-11T03:42:29.483Z,28.10
2018-12-11T03:44:58.297Z,28.50
2018-12-11T03:47:26.825Z,29.50
2018-12-11T03:49:55.509Z,29.80
2018-12-11T03:52:24.461Z,30.40
2018-12-11T03:54:53.034Z,30.90
2018-12-11T03:57:21.540Z,31.20
2018-12-11T03:59:50.434Z,31.90
2018-12-11T04:02:19.005Z,31.70
2018-12-11T04:04:47.533Z,30.90
2018-12-11T04:07:16.401Z,30.00
2018-12-11T04:09:45.084Z,29.20
2018-12-11T04:12:13.856Z,28.70
2018-12-11T04:14:42.602Z,28.90
2018-12-11T04:17:11.051Z,28.90
2018-12-11T04:19:39.724Z,28.80
2018-12-11T04:22:08.331Z,28.90
2018-12-11T04:24:38.339Z,28.60
2018-12-11T04:27:07.016Z,28.50
2018-12-11T04:29:35.751Z,28.70
2018-12-11T04:32:04.293Z,28.90
2018-12-11T04:34:32.774Z,29.30
2018-12-11T04:37:01.834Z,29.40
2018-12-11T04:39:33.791Z,29.10
2018-12-11T04:42:00.757Z,28.80
2018-12-11T04:44:29.738Z,29.10
2018-12-11T04:46:58.257Z,29.20
2018-12-11T04:49:27.010Z,29.40
2018-12-11T04:51:55.681Z,29.20
2018-12-11T04:54:24.217Z,29.30
2018-12-11T04:56:52.900Z,28.90
2018-12-11T04:59:21.902Z,29.20
2018-12-11T05:01:50.675Z,28.90
2018-12-11T05:04:19.152Z,29.10
2018-12-11T05:06:48.092Z,29.00
2018-12-11T05:09:16.687Z,28.80
2018-12-11T05:11:45.099Z,28.80
2018-12-11T05:14:13.849Z,28.90
2018-12-11T05:16:41.980Z,28.90
2018-12-11T05:19:10.156Z,29.20
2018-12-11T05:21:38.638Z,29.30
2018-12-11T05:24:06.816Z,29.20
2018-12-11T05:26:36.115Z,29.20
2018-12-11T05:29:05.316Z,29.40
2018-12-11T05:31:33.492Z,29.80
2018-12-11T05:34:01.786Z,29.90
2018-12-11T05:36:30.296Z,29.40
2018-12-11T05:38:58.528Z,29.00
2018-12-11T05:41:26.704Z,29.10
2018-12-11T05:43:55.224Z,29.30
2018-12-11T05:46:23.566Z,29.90
2018-12-11T05:48:51.743Z,30.10
2018-12-11T05:51:20.531Z,29.80
2018-12-11T05:53:48.821Z,29.50
2018-12-11T05:56:17.029Z,29.60
2018-12-11T05:58:45.672Z,29.50
2018-12-11T06:01:14.137Z,29.80
2018-12-11T06:03:42.653Z,29.50
2018-12-11T06:06:11.645Z,29.60
2018-12-11T06:08:40.398Z,29.30
2018-12-11T06:11:09.267Z,29.60
2018-12-11T06:13:38.073Z,29.30
2018-12-11T06:16:06.596Z,29.40
2018-12-11T06:18:35.285Z,29.60
2018-12-11T06:21:04.276Z,29.80
2018-12-11T06:23:32.954Z,30.00
2018-12-11T06:26:03.026Z,29.50
2018-12-11T06:28:33.316Z,29.20
2018-12-11T06:31:02.409Z,29.60
2018-12-11T06:33:31.092Z,29.70
2018-12-11T06:35:59.685Z,29.80
2018-12-11T06:38:28.269Z,29.60
2018-12-11T06:40:56.950Z,29.80
2018-12-11T06:43:25.948Z,29.90
2018-12-11T06:45:55.069Z,29.60
2018-12-11T06:48:23.793Z,29.30
2018-12-11T06:50:52.321Z,29.50
2018-12-11T06:53:20.960Z,29.60
2018-12-11T06:55:49.586Z,29.70
2018-12-11T06:58:18.582Z,29.60
2018-12-11T07:00:47.260Z,29.40
2018-12-11T07:03:15.789Z,29.50
2018-12-11T07:05:44.753Z,29.50
2018-12-11T07:08:15.414Z,29.40
2018-12-11T07:10:44.065Z,29.60
2018-12-11T07:13:12.801Z,29.80
2018-12-11T07:15:41.342Z,29.70
2018-12-11T07:18:10.062Z,29.80
2018-12-11T07:20:38.783Z,29.90
2018-12-11T07:23:07.305Z,29.90
2018-12-11T07:25:35.909Z,29.90
2018-12-11T07:28:04.874Z,30.00
2018-12-11T07:30:34.486Z,29.90
2018-12-11T07:33:03.069Z,29.80
2018-12-11T07:35:32.165Z,30.00
2018-12-11T07:38:00.942Z,30.10
2018-12-11T07:40:29.473Z,30.20
2018-12-11T07:42:58.537Z,30.10
2018-12-11T07:45:27.311Z,30.20
2018-12-11T07:47:55.781Z,30.00
2018-12-11T07:50:24.765Z,30.10
2018-12-11T07:52:53.309Z,30.20
2018-12-11T07:55:22.136Z,30.40
2018-12-11T07:57:50.773Z,30.40
2018-12-11T08:00:19.349Z,30.50
2018-12-11T08:02:48.098Z,30.20
2018-12-11T08:05:16.765Z,30.40
2018-12-11T08:07:45.309Z,30.50
2018-12-11T08:10:13.469Z,30.50
2018-12-11T08:12:41.950Z,30.20
2018-12-11T08:15:11.353Z,30.40
2018-12-11T08:17:39.735Z,30.30
2018-12-11T08:20:08.217Z,30.60
2018-12-11T08:22:36.457Z,30.40
2018-12-11T08:25:04.876Z,30.40
2018-12-11T08:27:34.017Z,30.40
2018-12-11T08:30:02.733Z,30.00
2018-12-11T08:32:32.721Z,30.00
2018-12-11T08:35:01.695Z,29.50
2018-12-11T08:37:30.297Z,29.30
2018-12-11T08:39:58.793Z,29.60
2018-12-11T08:42:27.677Z,29.60
2018-12-11T08:44:56.258Z,29.60
2018-12-11T08:47:25.007Z,29.70
2018-12-11T08:49:53.682Z,29.80
2018-12-11T08:52:22.193Z,29.70
2018-12-11T08:54:50.876Z,30.10
2018-12-11T08:57:19.871Z,30.10
2018-12-11T08:59:48.546Z,29.90
2018-12-11T09:02:17.077Z,29.90
2018-12-11T09:04:45.582Z,29.60
2018-12-11T09:07:14.198Z,29.50
2018-12-11T09:09:42.746Z,29.50
2018-12-11T09:12:11.825Z,29.40
2018-12-11T09:14:39.953Z,29.20
2018-12-11T09:17:10.277Z,29.40
2018-12-11T09:19:39.333Z,29.40
2018-12-11T09:22:07.810Z,29.20
2018-12-11T09:24:36.454Z,29.00
2018-12-11T09:27:05.450Z,28.90
2018-12-11T09:29:34.227Z,29.10
2018-12-11T09:32:02.867Z,29.10
2018-12-11T09:34:33.318Z,29.30
2018-12-11T09:37:01.848Z,29.30
2018-12-11T09:39:30.525Z,29.10
2018-12-11T09:41:59.749Z,29.10
2018-12-11T09:44:28.501Z,29.00
2018-12-11T09:46:56.974Z,29.20
2018-12-11T09:49:25.793Z,29.10
2018-12-11T09:51:54.398Z,29.10
2018-12-11T09:54:23.121Z,29.10
2018-12-11T09:56:51.937Z,29.40
2018-12-11T09:59:23.412Z,29.40
2018-12-11T10:01:50.997Z,29.50
2018-12-11T10:04:19.682Z,29.50
2018-12-11T10:06:48.403Z,29.40
2018-12-11T10:09:16.804Z,29.30
2018-12-11T10:11:45.745Z,29.60
2018-12-11T10:14:14.324Z,29.30
2018-12-11T10:16:43.053Z,29.40
2018-12-11T10:19:11.738Z,29.50
2018-12-11T10:21:40.285Z,29.50
2018-12-11T10:24:09.011Z,29.50
2018-12-11T10:26:37.730Z,29.50
2018-12-11T10:29:06.466Z,29.60
2018-12-11T10:31:35.032Z,29.40
2018-12-11T10:34:04.213Z,29.60
2018-12-11T10:36:33.740Z,29.60
2018-12-11T10:39:02.324Z,29.40
2018-12-11T10:41:31.421Z,29.10
2018-12-11T10:44:00.144Z,29.10
2018-12-11T10:46:33.753Z,29.00
2018-12-11T10:48:59.712Z,29.10
2018-12-11T10:51:28.485Z,29.10
2018-12-11T10:53:56.957Z,29.10
2018-12-11T10:56:25.777Z,28.90
2018-12-11T10:58:54.386Z,29.00
2018-12-11T11:01:24.959Z,29.00
2018-12-11T11:03:56.040Z,29.00
2018-12-11T11:06:24.717Z,28.80
2018-12-11T11:08:53.529Z,28.80
2018-12-11T11:11:22.255Z,28.80
2018-12-11T11:13:50.709Z,28.70
2018-12-11T11:16:19.366Z,28.70
2018-12-11T11:18:48.365Z,28.90
2018-12-11T11:21:16.883Z,28.90
2018-12-11T11:23:45.436Z,28.70
2018-12-11T11:26:14.730Z,28.60
2018-12-11T11:28:43.314Z,28.60
2018-12-11T11:31:11.770Z,28.70
2018-12-11T11:33:40.694Z,28.80
2018-12-11T11:36:09.301Z,28.70
2018-12-11T11:38:38.327Z,28.80
2018-12-11T11:41:07.469Z,28.70
2018-12-11T11:43:36.116Z,28.70
2018-12-11T11:46:04.831Z,28.60
2018-12-11T11:48:33.610Z,28.60
2018-12-11T11:51:02.325Z,28.70
2018-12-11T11:53:30.794Z,28.80
2018-12-11T11:56:00.013Z,28.60
2018-12-11T11:58:28.754Z,28.80
2018-12-11T12:00:57.144Z,28.70
2018-12-11T12:03:25.966Z,28.60
2018-12-11T12:05:54.646Z,28.60
2018-12-11T12:08:23.325Z,28.60
2018-12-11T12:10:51.869Z,28.50
2018-12-11T12:13:20.405Z,28.50
2018-12-11T12:15:49.093Z,28.50
2018-12-11T12:18:18.193Z,28.50
2018-12-11T12:20:46.965Z,28.30
2018-12-11T12:23:15.433Z,28.40
2018-12-11T12:25:44.034Z,28.50
2018-12-11T12:28:13.133Z,28.40
2018-12-11T12:30:41.715Z,28.30
2018-12-11T12:33:10.197Z,28.20
2018-12-11T12:35:39.601Z,28.20
2018-12-11T12:38:07.777Z,28.20
2018-12-11T12:40:37.644Z,28.10
2018-12-11T12:43:05.805Z,27.90
2018-12-11T12:45:34.145Z,27.90
2018-12-11T12:48:03.549Z,27.90
2018-12-11T12:50:31.803Z,27.80
2018-12-11T12:52:59.901Z,27.80
2018-12-11T12:55:31.520Z,27.70
2018-12-11T12:57:59.873Z,27.60
2018-12-11T13:00:32.722Z,27.60
2018-12-11T13:03:00.900Z,27.60
2018-12-11T13:05:29.521Z,27.60
2018-12-11T13:07:58.385Z,27.60
2018-12-11T13:10:27.139Z,27.50
2018-12-11T13:12:55.640Z,27.40
2018-12-11T13:15:24.169Z,27.30
2018-12-11T13:17:52.596Z,27.30
2018-12-11T13:20:21.113Z,27.10
2018-12-11T13:22:50.101Z,27.20
2018-12-11T13:25:18.367Z,27.20
2018-12-11T13:27:49.121Z,27.30
2018-12-11T13:30:17.970Z,27.10
2018-12-11T13:32:46.490Z,27.10
2018-12-11T13:35:15.351Z,27.10
2018-12-11T13:37:44.477Z,27.00
2018-12-11T13:40:13.131Z,27.00
2018-12-11T13:42:42.779Z,27.00
2018-12-11T13:45:11.671Z,26.90
2018-12-11T13:47:40.421Z,26.80
2018-12-11T13:50:08.914Z,26.80
2018-12-11T13:52:37.789Z,26.80
2018-12-11T13:55:06.337Z,26.80
2018-12-11T13:57:35.165Z,26.80
2018-12-11T14:00:04.885Z,26.80
2018-12-11T14:02:33.179Z,26.80
2018-12-11T14:05:01.650Z,26.90
2018-12-11T14:07:30.497Z,27.00
2018-12-11T14:09:59.085Z,27.00
2018-12-11T14:12:27.826Z,27.00
2018-12-11T14:14:56.928Z,26.90
2018-12-11T14:17:25.526Z,26.90
2018-12-11T14:19:54.237Z,26.80
2018-12-11T14:22:23.147Z,26.80
2018-12-11T14:24:51.887Z,26.70
2018-12-11T14:27:20.345Z,26.70
2018-12-11T14:29:49.308Z,26.70
2018-12-11T14:32:17.882Z,26.70
2018-12-11T14:34:46.627Z,26.60
2018-12-11T14:37:15.390Z,26.60
2018-12-11T14:39:44.642Z,26.60
2018-12-11T14:42:13.119Z,26.60
2018-12-11T14:44:43.256Z,26.60
2018-12-11T14:47:11.982Z,26.50
2018-12-11T14:49:40.442Z,26.50
2018-12-11T14:52:09.406Z,26.40
2018-12-11T14:54:38.010Z,26.40
2018-12-11T14:57:06.733Z,26.40
2018-12-11T14:59:36.486Z,26.40
2018-12-11T15:02:05.336Z,26.40
2018-12-11T15:04:34.024Z,26.30
2018-12-11T15:07:02.557Z,26.30
2018-12-11T15:09:36.469Z,26.20
2018-12-11T15:12:05.206Z,26.20
2018-12-11T15:14:33.730Z,26.30
2018-12-11T15:17:02.509Z,26.30
2018-12-11T15:19:31.250Z,26.30
2018-12-11T15:21:59.796Z,26.20
2018-12-11T15:24:28.541Z,26.20
2018-12-11T15:26:57.252Z,26.20
2018-12-11T15:29:25.781Z,26.20
2018-12-11T15:31:54.361Z,26.20
2018-12-11T15:34:23.226Z,26.20
2018-12-11T15:36:51.690Z,26.20
2018-12-11T15:39:20.299Z,26.20
2018-12-11T15:41:49.114Z,26.20
2018-12-11T15:44:17.834Z,26.20
2018-12-11T15:46:47.383Z,26.20
2018-12-11T15:49:16.628Z,26.20
2018-12-11T15:51:45.265Z,26.20
2018-12-11T15:54:13.838Z,26.10
2018-12-11T15:56:43.013Z,26.10
2018-12-11T15:59:11.537Z,26.20
2018-12-11T16:01:40.152Z,26.20
2018-12-11T16:04:09.137Z,26.20
2018-12-11T16:06:37.965Z,26.20
2018-12-11T16:09:10.036Z,26.20
2018-12-11T16:11:38.491Z,26.20
2018-12-11T16:14:07.447Z,26.10
2018-12-11T16:16:35.893Z,26.10
2018-12-11T16:19:04.500Z,26.10
2018-12-11T16:21:33.083Z,26.20
2018-12-11T16:24:01.924Z,26.20
2018-12-11T16:26:30.500Z,26.20
2018-12-11T16:28:58.942Z,26.10
2018-12-11T16:31:27.762Z,26.20
2018-12-11T16:33:56.329Z,26.20
2018-12-11T16:36:25.001Z,26.10
2018-12-11T16:38:54.057Z,26.10
2018-12-11T16:41:22.623Z,26.00
2018-12-11T16:43:51.454Z,26.10
2018-12-11T16:46:20.134Z,26.20
2018-12-11T16:48:50.021Z,26.20
2018-12-11T16:51:18.449Z,26.10
2018-12-11T16:53:47.742Z,26.20
2018-12-11T16:56:16.295Z,26.10
2018-12-11T16:58:44.845Z,26.10
2018-12-11T17:01:13.765Z,26.10
2018-12-11T17:03:42.455Z,26.00
2018-12-11T17:06:10.911Z,26.00
2018-12-11T17:08:39.693Z,26.00
2018-12-11T17:11:08.313Z,26.00
2018-12-11T17:13:37.056Z,26.00
2018-12-11T17:16:06.080Z,26.00
2018-12-11T17:18:34.577Z,26.00
2018-12-11T17:21:03.337Z,26.00
2018-12-11T17:23:32.233Z,26.00
2018-12-11T17:26:01.601Z,26.00
2018-12-11T17:28:30.126Z,26.00
2018-12-11T17:30:59.014Z,26.00
2018-12-11T17:33:27.783Z,26.00
2018-12-11T17:35:56.318Z,26.00
2018-12-11T17:38:25.342Z,25.90
2018-12-11T17:40:53.861Z,25.90
2018-12-11T17:43:22.505Z,25.90
2018-12-11T17:45:51.029Z,25.90
2018-12-11T17:48:19.793Z,25.90
2018-12-11T17:50:49.735Z,25.90
2018-12-11T17:53:18.752Z,25.80
2018-12-11T17:55:47.484Z,25.90
2018-12-11T17:58:16.193Z,25.90
2018-12-11T18:00:44.964Z,25.90
2018-12-11T18:03:14.122Z,25.80
2018-12-11T18:05:42.682Z,25.90
2018-12-11T18:08:11.886Z,25.90
2018-12-11T18:10:40.567Z,25.80
2018-12-11T18:13:09.342Z,25.90
2018-12-11T18:15:38.105Z,25.80
2018-12-11T18:18:06.686Z,25.80
2018-12-11T18:20:35.318Z,25.80
2018-12-11T18:23:04.930Z,25.80
2018-12-11T18:25:33.610Z,25.80
2018-12-11T18:28:02.566Z,25.80
2018-12-11T18:30:31.221Z,25.80
2018-12-11T18:32:59.710Z,25.80
2018-12-11T18:35:28.285Z,25.80
2018-12-11T18:37:57.149Z,25.80
2018-12-11T18:40:25.824Z,25.80
2018-12-11T18:42:54.352Z,25.80
2018-12-11T18:45:23.458Z,25.80
2018-12-11T18:47:52.029Z,25.70
2018-12-11T18:50:21.440Z,25.70
2018-12-11T18:52:51.937Z,25.70
2018-12-11T18:55:20.548Z,25.80
2018-12-11T18:57:49.209Z,25.80
2018-12-11T19:00:18.217Z,25.80
2018-12-11T19:02:46.662Z,25.80
2018-12-11T19:05:15.509Z,25.70
2018-12-11T19:07:44.165Z,25.70
2018-12-11T19:10:12.851Z,25.70
2018-12-11T19:12:41.626Z,25.70
2018-12-11T19:15:10.436Z,25.70
2018-12-11T19:17:39.017Z,25.70
2018-12-11T19:20:07.703Z,25.70
2018-12-11T19:22:37.105Z,25.70
2018-12-11T19:25:08.361Z,25.60
2018-12-11T19:27:36.870Z,25.60
2018-12-11T19:30:06.841Z,25.50
2018-12-11T19:32:35.606Z,25.50
2018-12-11T19:35:04.495Z,25.50
2018-12-11T19:37:33.395Z,25.60
2018-12-11T19:40:02.204Z,25.60
2018-12-11T19:42:30.905Z,25.50
2018-12-11T19:44:59.896Z,25.60
2018-12-11T19:47:28.676Z,25.50
2018-12-11T19:49:57.153Z,25.50
2018-12-11T19:52:25.999Z,25.50
2018-12-11T19:54:55.401Z,25.60
2018-12-11T19:57:23.957Z,25.60
2018-12-11T19:59:52.954Z,25.50
2018-12-11T20:02:21.566Z,25.50
2018-12-11T20:04:50.307Z,25.50
2018-12-11T20:07:19.046Z,25.50
2018-12-11T20:09:53.518Z,25.50
2018-12-11T20:12:22.449Z,25.40
2018-12-11T20:14:51.173Z,25.40
2018-12-11T20:17:19.570Z,25.50
2018-12-11T20:19:48.522Z,25.30
2018-12-11T20:22:17.096Z,25.40
2018-12-11T20:24:45.822Z,25.40
2018-12-11T20:27:14.637Z,25.40
2018-12-11T20:29:43.133Z,25.50
2018-12-11T20:32:11.745Z,25.50
2018-12-11T20:34:40.744Z,25.60
2018-12-11T20:37:09.566Z,25.50
2018-12-11T20:39:38.024Z,25.40
2018-12-11T20:42:06.773Z,25.40
2018-12-11T20:44:35.357Z,25.40
2018-12-11T20:47:04.134Z,25.40
2018-12-11T20:49:33.212Z,25.30
2018-12-11T20:52:01.662Z,25.30
2018-12-11T20:54:30.239Z,25.30
2018-12-11T20:57:00.510Z,25.30
2018-12-11T20:59:29.055Z,25.30
2018-12-11T21:01:57.701Z,25.20
2018-12-11T21:04:26.289Z,25.20
2018-12-11T21:06:54.881Z,25.20
2018-12-11T21:09:23.561Z,25.30
2018-12-11T21:11:52.409Z,25.30
2018-12-11T21:14:20.941Z,25.30
2018-12-11T21:16:49.482Z,25.20
2018-12-11T21:19:18.189Z,25.10
2018-12-11T21:21:46.798Z,25.10
2018-12-11T21:24:15.694Z,25.10
2018-12-11T21:26:44.900Z,25.00
2018-12-11T21:29:13.570Z,25.10
2018-12-11T21:31:42.321Z,25.00
2018-12-11T21:34:11.013Z,25.10
2018-12-11T21:36:39.533Z,25.20
2018-12-11T21:39:08.117Z,25.20
2018-12-11T21:41:37.109Z,25.20
2018-12-11T21:44:05.862Z,25.10
2018-12-11T21:46:34.254Z,25.10
2018-12-11T21:49:03.244Z,25.10
2018-12-11T21:51:31.785Z,25.10
2018-12-11T21:54:00.512Z,25.00
2018-12-11T21:56:29.205Z,25.00
2018-12-11T21:58:58.850Z,25.00
2018-12-11T22:01:27.529Z,25.00
2018-12-11T22:03:56.756Z,25.00
2018-12-11T22:06:25.458Z,25.00
2018-12-11T22:08:54.009Z,25.00
2018-12-11T22:11:23.009Z,25.00
2018-12-11T22:13:51.609Z,24.90
2018-12-11T22:16:20.047Z,24.90
2018-12-11T22:18:48.894Z,24.90
2018-12-11T22:21:17.541Z,24.90
2018-12-11T22:23:46.223Z,24.90
2018-12-11T22:26:15.285Z,25.00
2018-12-11T22:28:43.814Z,25.00
2018-12-11T22:31:12.498Z,24.90
2018-12-11T22:33:41.490Z,24.80
2018-12-11T22:36:09.945Z,24.80
2018-12-11T22:38:38.565Z,24.80
2018-12-11T22:41:07.378Z,24.70
2018-12-11T22:43:36.098Z,24.70
2018-12-11T22:46:04.793Z,24.80
2018-12-11T22:48:33.857Z,24.80
2018-12-11T22:51:02.817Z,24.80
2018-12-11T22:53:31.502Z,24.80
2018-12-11T22:56:00.810Z,24.80
2018-12-11T22:58:29.556Z,24.70
2018-12-11T23:00:59.908Z,24.70
2018-12-11T23:03:28.669Z,24.70
2018-12-11T23:05:57.301Z,24.70
2018-12-11T23:08:25.881Z,24.60
2018-12-11T23:10:54.605Z,24.70
2018-12-11T23:13:23.053Z,24.60
2018-12-11T23:15:51.806Z,24.70
2018-12-11T23:18:20.457Z,24.70
2018-12-11T23:20:48.910Z,24.70
2018-12-11T23:23:17.606Z,24.70
2018-12-11T23:25:46.798Z,24.70
2018-12-11T23:28:15.406Z,24.70
2018-12-11T23:30:43.977Z,24.70
2018-12-11T23:33:13.264Z,24.70
2018-12-11T23:35:41.784Z,24.70
2018-12-11T23:38:10.362Z,24.70
2018-12-11T23:40:39.226Z,24.60
2018-12-11T23:43:08.077Z,24.60
2018-12-11T23:45:36.479Z,24.50
2018-12-11T23:48:05.289Z,24.50
2018-12-11T23:50:33.969Z,24.60
2018-12-11T23:53:02.727Z,24.40
2018-12-11T23:55:31.414Z,24.10
2018-12-11T23:57:59.934Z,23.80
